Time;durP1;ratioP1;P1;durP2;ratioP2;P2;SDS_P1;SDS_P2;PMS_P1;PMS_P2;Temp;Humidity;BMP_temperature;BMP_pressure;BME280_temperature;BME280_humidity;BME280_pressure;Samples;Min_cycle;Max_cycle;Signal;HPM_P1;HPM_P2
2022/06/22 00:01:04;;;;;;;5.35;3.47;;;;;;;13.29;68.63;98293.19;1792794;80;25634;-59
2022/06/22 00:03:32;;;;;;;5.37;3.27;;;;;;;13.35;68.77;98299.27;1793292;79;25414;-60
2022/06/22 00:05:58;;;;;;;5.37;3.60;;;;;;;13.35;68.77;98299.27;1792953;79;27361;-59
2022/06/22 00:08:34;;;;;;;3.90;3.50;;;;;;;13.37;68.66;98302.50;1793132;80;25643;-59
2022/06/22 00:11:15;;;;;;;6.20;3.33;;;;;;;13.35;68.70;98301.46;1793154;79;25678;-59
2022/06/22 00:13:50;;;;;;;4.62;3.62;;;;;;;13.29;69.24;98311.08;1792930;80;25607;-59
2022/06/22 00:16:21;;;;;;;5.33;3.58;;;;;;;13.18;69.28;98313.45;1793161;80;25577;-60
2022/06/22 00:18:50;;;;;;;7.00;4.65;;;;;;;13.13;70.21;98317.81;1792687;79;28390;-59
2022/06/22 00:21:30;;;;;;;8.15;4.90;;;;;;;13.05;70.03;98318.95;1793025;80;25466;-59
2022/06/22 00:24:00;;;;;;;7.33;4.85;;;;;;;13.05;69.92;98333.27;1792162;80;27554;-59
2022/06/22 00:26:34;;;;;;;7.65;4.62;;;;;;;12.95;70.36;98333.09;1793290;80;25519;-59
2022/06/22 00:29:05;;;;;;;8.98;4.78;;;;;;;12.96;70.50;98338.03;1793145;80;25603;-59
2022/06/22 00:31:43;;;;;;;5.55;4.30;;;;;;;12.98;70.40;98341.27;1793210;79;27483;-59
2022/06/22 00:34:15;;;;;;;7.15;5.03;;;;;;;13.00;70.47;98349.41;1793003;79;25668;-59
2022/06/22 00:37:01;;;;;;;5.42;4.53;;;;;;;13.03;70.38;98345.98;1792703;79;25423;-59
2022/06/22 00:39:38;;;;;;;6.60;4.65;;;;;;;13.03;70.50;98345.98;1792845;79;25577;-60
2022/06/22 00:42:27;;;;;;;6.40;4.55;;;;;;;12.94;70.68;98348.00;1793035;79;25656;-60
2022/06/22 00:45:10;;;;;;;6.40;4.45;;;;;;;12.86;71.86;98344.19;1792776;79;27457;-59
2022/06/22 00:47:48;;;;;;;7.55;4.78;;;;;;;12.61;71.86;98337.18;1792881;80;25611;-59
2022/06/22 00:50:19;;;;;;;8.13;4.58;;;;;;;12.53;71.98;98340.81;1790676;80;25667;-59
2022/06/22 00:53:11;;;;;;;7.90;5.15;;;;;;;12.49;72.10;98339.30;1793058;79;25552;-59
2022/06/22 00:56:13;;;;;;;6.37;4.75;;;;;;;12.49;72.35;98335.77;1792686;79;25410;-59
2022/06/22 00:59:20;;;;;;;9.18;5.60;;;;;;;12.52;72.27;98331.75;1792239;79;25893;-60
2022/06/22 01:01:57;;;;;;;7.53;4.90;;;;;;;12.49;72.42;98331.64;1792638;80;25658;-59
2022/06/22 01:04:32;;;;;;;9.00;4.92;;;;;;;12.51;72.57;98336.21;1793264;79;25635;-59
2022/06/22 01:07:28;;;;;;;9.15;5.10;;;;;;;12.53;72.56;98338.06;1792999;79;25703;-59
2022/06/22 01:10:18;;;;;;;8.15;5.03;;;;;;;12.50;72.87;98335.98;1792968;79;25563;-59
2022/06/22 01:12:58;;;;;;;8.48;5.15;;;;;;;12.51;72.74;98338.96;1792741;80;29533;-59
2022/06/22 01:15:35;;;;;;;8.03;4.83;;;;;;;12.53;72.79;98342.97;1764334;80;25510;-59
2022/06/22 01:18:19;;;;;;;10.05;6.40;;;;;;;12.58;72.74;98336.47;1792928;80;25473;-59
2022/06/22 01:21:00;;;;;;;11.10;8.63;;;;;;;12.55;72.66;98327.52;1792044;80;26275;-59
2022/06/22 01:23:52;;;;;;;;;;;;;;;12.49;72.78;98320.64;1795798;79;25591;-59
2022/06/22 01:26:51;;;;;;;13.30;8.68;;;;;;;12.37;72.85;98321.36;1757770;81;27411;-59
2022/06/22 01:29:22;;;;;;;10.58;8.00;;;;;;;12.35;73.05;98317.56;1703423;83;25777;-58
2022/06/22 01:32:01;;;;;;;11.48;7.75;;;;;;;12.30;73.17;98315.03;1703310;84;25732;-59
2022/06/22 01:34:41;;;;;;;11.20;8.30;;;;;;;12.28;73.26;98312.62;1703525;84;25674;-59
2022/06/22 01:37:18;;;;;;;10.80;7.67;;;;;;;12.28;73.21;98306.31;1703651;84;25693;-59
2022/06/22 01:39:45;;;;;;;10.18;7.35;;;;;;;12.28;73.09;98311.80;1703380;84;28317;-59
2022/06/22 01:42:25;;;;;;;9.13;6.78;;;;;;;12.29;73.06;98313.41;1703238;84;25794;-59
2022/06/22 01:45:01;;;;;;;10.75;6.92;;;;;;;12.30;73.13;98309.54;1703161;82;25650;-59
2022/06/22 01:47:50;;;;;;;7.83;5.80;;;;;;;12.30;73.04;98314.45;1703604;84;26293;-59
2022/06/22 01:50:25;;;;;;;8.13;5.70;;;;;;;12.32;73.09;98316.86;1700514;84;25721;-58
2022/06/22 01:53:12;;;;;;;7.95;5.47;;;;;;;12.32;73.15;98316.08;1703562;84;27396;-59
2022/06/22 01:55:56;;;;;;;7.08;5.30;;;;;;;12.35;73.05;98318.94;1703385;84;25701;-59
2022/06/22 01:58:50;;;;;;;7.33;5.25;;;;;;;12.36;72.96;98314.26;1646067;87;25839;-59
2022/06/22 02:01:40;;;;;;;7.78;6.03;;;;;;;12.35;73.01;98321.69;1646382;87;25816;-58
2022/06/22 02:04:50;;;;;;;7.67;5.30;;;;;;;12.28;72.79;98322.23;1646372;87;25564;-58
2022/06/22 02:07:45;;;;;;;7.15;5.50;;;;;;;12.20;73.07;98331.91;1724494;83;27504;-59
2022/06/22 02:10:46;;;;;;;7.45;5.62;;;;;;;12.08;73.05;98332.05;1724443;83;25514;-59
2022/06/22 02:13:32;;;;;;;7.80;5.15;;;;;;;11.93;73.42;98333.39;1724958;83;25667;-59
2022/06/22 02:16:23;;;;;;;7.08;5.40;;;;;;;11.83;73.54;98327.69;1724966;83;25491;-59
2022/06/22 02:19:00;;;;;;;6.85;5.22;;;;;;;11.82;73.81;98330.21;1724861;83;25838;-59
2022/06/22 02:21:47;;;;;;;7.92;5.55;;;;;;;11.79;73.78;98331.69;1724914;83;28136;-59
2022/06/22 02:24:18;;;;;;;8.65;5.08;;;;;;;11.76;73.76;98332.34;1724741;83;25716;-59
2022/06/22 02:26:56;;;;;;;6.40;5.28;;;;;;;11.77;73.88;98329.02;1724394;83;25729;-59
2022/06/22 02:29:26;;;;;;;6.62;4.90;;;;;;;11.79;73.98;98341.85;1724717;83;25491;-59
2022/06/22 02:31:57;;;;;;;6.47;5.60;;;;;;;11.77;73.94;98339.44;1724992;83;32737;-59
2022/06/22 02:34:25;;;;;;;7.37;4.95;;;;;;;11.75;74.05;98331.30;1729573;80;27369;-59
2022/06/22 02:36:53;;;;;;;6.35;4.70;;;;;;;11.76;74.15;98340.58;1792715;80;25438;-58
2022/06/22 02:39:23;;;;;;;9.90;5.70;;;;;;;11.79;74.11;98344.59;1792985;79;25667;-59
2022/06/22 02:44:39;;;;;;;10.25;5.67;;;;;;;11.74;73.87;98365.36;1791394;79;25392;-58
2022/06/22 02:47:23;;;;;;;7.65;5.40;;;;;;;11.72;73.89;98376.69;1791237;80;28101;-59
2022/06/22 02:49:57;;;;;;;8.70;6.10;;;;;;;11.69;74.02;98371.86;1787805;80;25407;-58
2022/06/22 02:52:29;;;;;;;8.70;5.33;;;;;;;11.58;74.15;98372.78;1791132;80;25659;-58
2022/06/22 02:54:57;;;;;;;7.75;5.75;;;;;;;11.50;74.31;98366.17;1789386;80;25430;-59
2022/06/22 02:57:55;;;;;;;8.25;6.22;;;;;;;11.44;74.62;98370.78;1791126;80;25523;-59
2022/06/22 03:00:26;;;;;;;8.13;5.90;;;;;;;11.36;74.84;98369.11;1790865;80;27576;-58
2022/06/22 03:03:14;;;;;;;8.83;6.00;;;;;;;11.31;75.11;98362.41;1790172;80;25938;-58
2022/06/22 03:05:43;;;;;;;7.40;5.55;;;;;;;11.31;75.41;98369.27;1790860;80;25418;-58
2022/06/22 03:08:12;;;;;;;9.10;5.87;;;;;;;11.34;75.53;98365.09;1791111;80;25471;-59
2022/06/22 03:10:49;;;;;;;7.50;5.85;;;;;;;11.41;75.44;98365.39;1790671;80;25477;-59
2022/06/22 03:13:20;;;;;;;8.13;5.05;;;;;;;11.54;75.45;98353.96;1791280;80;27422;-59
2022/06/22 03:15:48;;;;;;;7.12;5.00;;;;;;;11.72;75.20;98355.29;1789086;80;25829;-59
2022/06/22 03:18:24;;;;;;;10.00;5.65;;;;;;;11.92;75.09;98345.52;1791125;80;25577;-59
2022/06/22 03:20:59;;;;;;;7.05;5.50;;;;;;;12.07;74.81;98343.33;1790592;80;25708;-59
2022/06/22 03:23:43;;;;;;;6.75;5.37;;;;;;;12.20;74.64;98332.70;1790862;80;25403;-59
2022/06/22 03:26:33;;;;;;;9.15;5.28;;;;;;;12.30;74.35;98332.89;1791283;80;27403;-60
2022/06/22 03:29:05;;;;;;;8.15;4.92;;;;;;;12.40;74.33;98327.00;1790212;80;25600;-59
2022/06/22 03:31:37;;;;;;;6.58;4.60;;;;;;;12.53;73.95;98328.45;1791223;80;25589;-59
2022/06/22 03:34:11;;;;;;;6.12;4.37;;;;;;;12.66;73.76;98325.17;1790026;80;25426;-59
2022/06/22 03:37:24;;;;;;;7.20;4.60;;;;;;;12.84;73.52;98325.83;1791251;80;25589;-59
2022/06/22 03:39:57;;;;;;;11.97;6.10;;;;;;;13.07;73.98;98322.70;1790832;80;27411;-59
2022/06/22 03:42:32;;;;;;;7.65;4.22;;;;;;;13.37;73.88;98320.39;1791108;80;25828;-59
2022/06/22 03:45:10;;;;;;;7.15;4.65;;;;;;;13.61;73.53;98317.46;1775670;80;25426;-59
2022/06/22 03:48:09;;;;;;;5.50;4.50;;;;;;;13.78;72.03;98328.84;1772281;80;26402;-60
2022/06/22 03:50:43;;;;;;;6.53;4.30;;;;;;;13.90;72.00;98337.67;1772083;81;25616;-59
2022/06/22 03:53:27;;;;;;;7.58;4.67;;;;;;;14.15;72.48;98335.73;1770665;81;28381;-60
2022/06/22 03:55:59;;;;;;;6.67;4.58;;;;;;;14.40;71.68;98328.79;1771211;81;26066;-59
2022/06/22 03:58:25;;;;;;;7.28;4.62;;;;;;;14.39;71.07;98331.33;1772302;81;25656;-59
2022/06/22 04:00:54;;;;;;;6.35;5.12;;;;;;;14.48;71.41;98336.70;1772048;81;25481;-59
2022/06/22 04:03:21;;;;;;;9.45;6.25;;;;;;;14.67;71.24;98338.04;1772230;81;25681;-59
2022/06/22 04:05:57;;;;;;;6.65;5.55;;;;;;;14.79;70.29;98332.52;1772286;81;28375;-59
2022/06/22 04:08:34;;;;;;;8.50;5.65;;;;;;;15.04;70.70;98337.95;1772372;81;25574;-59
2022/06/22 04:11:18;;;;;;;8.50;5.78;;;;;;;15.04;70.70;98337.95;1746064;81;25769;-58
2022/06/22 04:14:11;;;;;;;7.90;5.72;;;;;;;15.18;69.22;98334.78;1771899;81;25490;-59
2022/06/22 04:16:42;;;;;;;7.22;5.45;;;;;;;15.35;69.43;98348.03;1772428;81;25570;-59
2022/06/22 04:19:22;;;;;;;7.60;6.20;;;;;;;15.58;68.87;98350.20;1771969;81;27424;-59
2022/06/22 04:21:59;;;;;;;11.57;6.20;;;;;;;15.83;68.79;98350.01;1772288;81;25862;-59
2022/06/22 04:24:37;;;;;;;9.30;5.37;;;;;;;16.07;68.05;98351.59;1772119;80;25458;-59
2022/06/22 04:27:30;;;;;;;7.95;5.22;;;;;;;16.25;66.30;98345.91;1768762;81;25615;-59
2022/06/22 04:30:13;;;;;;;9.28;5.33;;;;;;;16.43;65.44;98350.45;1771924;81;25641;-59
2022/06/22 04:33:03;;;;;;;7.92;5.50;;;;;;;16.57;65.12;98357.46;1772515;81;28160;-60
2022/06/22 04:35:43;;;;;;;9.70;5.42;;;;;;;16.78;65.11;98362.65;1771491;81;25673;-59
2022/06/22 04:38:27;;;;;;;5.28;4.70;;;;;;;16.98;64.52;98359.89;1772405;81;25625;-60
2022/06/22 04:41:37;;;;;;;6.72;5.37;;;;;;;17.09;62.83;98360.70;1771769;80;25608;-59
2022/06/22 04:44:17;;;;;;;7.80;5.60;;;;;;;17.11;62.98;98368.08;1774978;79;25443;-59
2022/06/22 04:46:54;;;;;;;8.03;4.83;;;;;;;17.14;61.02;98366.77;1790239;80;27350;-59
2022/06/22 04:49:31;;;;;;;6.28;5.20;;;;;;;17.20;61.17;98365.89;1791040;80;25616;-60
2022/06/22 04:52:24;;;;;;;8.98;5.45;;;;;;;17.14;61.91;98364.58;1791177;80;25735;-60
2022/06/22 04:54:55;;;;;;;7.80;5.08;;;;;;;17.14;61.62;98357.66;1749729;81;26246;-60
2022/06/22 04:57:29;;;;;;;8.55;5.70;;;;;;;17.14;60.81;98366.77;1761522;81;25719;-60
2022/06/22 04:59:56;;;;;;;8.93;5.53;;;;;;;17.21;61.07;98362.55;1761532;81;27355;-60
2022/06/22 05:02:28;;;;;;;5.83;4.65;;;;;;;17.37;61.51;98367.98;1761160;81;25480;-60
2022/06/22 05:05:00;;;;;;;9.00;5.03;;;;;;;17.40;59.86;98358.94;1761153;81;25691;-60
2022/06/22 05:07:46;;;;;;;7.10;4.78;;;;;;;17.30;59.91;98356.20;1761271;81;26182;-60
2022/06/22 05:10:21;;;;;;;6.75;4.70;;;;;;;17.29;60.47;98360.11;1761630;81;25431;-60
2022/06/22 05:12:55;;;;;;;7.47;4.92;;;;;;;17.33;60.46;98362.39;1761286;81;27400;-60
2022/06/22 05:15:30;;;;;;;7.87;4.70;;;;;;;17.41;60.76;98371.03;1761749;81;25616;-60
2022/06/22 05:17:58;;;;;;;8.10;4.28;;;;;;;17.53;60.47;98377.58;1760934;81;25543;-59
2022/06/22 05:20:45;;;;;;;4.95;4.15;;;;;;;17.66;58.95;98389.28;1761475;81;25514;-59
2022/06/22 05:23:13;;;;;;;7.95;4.87;;;;;;;17.76;59.70;98394.20;1761222;81;25503;-59
2022/06/22 05:25:43;;;;;;;7.62;4.33;;;;;;;18.02;59.79;98384.95;1773202;80;28410;-59
2022/06/22 05:28:18;;;;;;;7.13;4.40;;;;;;;18.26;59.52;98382.97;1791102;80;25534;-60
2022/06/22 05:31:04;;;;;;;6.20;4.40;;;;;;;18.45;58.17;98387.59;1789900;80;25760;-58
2022/06/22 05:33:34;;;;;;;6.40;4.12;;;;;;;18.51;58.09;98395.81;1790690;80;25455;-60
2022/06/22 05:36:07;;;;;;;5.70;3.98;;;;;;;18.58;57.55;98394.31;1791235;80;25640;-59
2022/06/22 05:38:37;;;;;;;7.80;3.92;;;;;;;18.64;57.60;98395.02;1790770;80;29481;-59
2022/06/22 05:41:07;;;;;;;6.12;4.20;;;;;;;18.76;57.99;98405.67;1790993;80;25699;-59
2022/06/22 05:43:35;;;;;;;6.55;4.55;;;;;;;18.92;58.48;98399.95;1790896;80;25604;-59
2022/06/22 05:46:06;;;;;;;5.90;3.60;;;;;;;19.03;57.88;98404.25;1792494;79;25640;-59
2022/06/22 05:48:37;;;;;;;7.60;3.67;;;;;;;19.22;57.93;98399.72;1792594;80;25622;-59
2022/06/22 05:51:30;;;;;;;6.22;3.62;;;;;;;19.45;55.34;98398.81;1792479;80;28429;-60
2022/06/22 05:54:07;;;;;;;6.42;3.27;;;;;;;19.47;55.35;98397.83;1793118;80;25670;-60
2022/06/22 05:56:38;;;;;;;4.50;2.98;;;;;;;19.52;55.25;98398.89;1792065;80;25659;-59
2022/06/22 05:59:29;;;;;;;5.17;3.12;;;;;;;19.63;55.07;98403.17;1791915;80;25477;-60
2022/06/22 06:02:23;;;;;;;5.97;3.17;;;;;;;19.69;54.65;98403.81;1753747;81;25990;-59
2022/06/22 06:05:20;;;;;;;5.00;2.80;;;;;;;19.81;54.85;98404.12;1727819;83;28215;-60
2022/06/22 06:07:51;;;;;;;3.80;2.50;;;;;;;19.85;53.04;98407.53;1754128;81;25644;-60
2022/06/22 06:10:25;;;;;;;4.50;2.60;;;;;;;19.76;53.88;98406.45;1727294;83;25815;-60
2022/06/22 06:13:02;;;;;;;4.22;2.80;;;;;;;19.85;51.25;98408.34;1753274;81;25818;-59
2022/06/22 06:15:36;;;;;;;3.42;2.08;;;;;;;19.88;52.95;98406.76;1727859;83;25640;-60
2022/06/22 06:18:05;;;;;;;4.00;2.10;;;;;;;20.03;52.10;98412.70;1754448;81;28255;-60
2022/06/22 06:20:41;;;;;;;6.72;2.80;;;;;;;20.15;49.77;98415.77;1727852;83;25949;-60
2022/06/22 06:23:34;;;;;;;2.80;2.20;;;;;;;20.17;52.00;98410.63;1754333;81;25667;-60
2022/06/22 06:29:09;;;;;;;3.42;2.10;;;;;;;20.05;50.53;98409.53;1754220;81;25664;-60
2022/06/22 06:31:41;;;;;;;5.92;2.95;;;;;;;20.16;48.83;98407.66;1728122;83;27367;-60
2022/06/22 06:34:21;;;;;;;5.70;3.45;;;;;;;20.17;51.01;98412.02;1698688;84;25917;-60
2022/06/22 06:37:14;;;;;;;6.17;3.30;;;;;;;20.21;52.03;98405.69;1700278;84;25810;-59
2022/06/22 06:39:47;;;;;;;4.80;2.75;;;;;;;20.44;53.14;98404.85;1725090;82;25689;-60
2022/06/22 06:42:34;;;;;;;4.78;2.85;;;;;;;20.58;50.24;98401.95;1733324;82;25703;-59
2022/06/22 06:45:02;;;;;;;5.20;3.17;;;;;;;20.67;49.82;98407.20;1733043;82;27445;-59
2022/06/22 06:47:36;;;;;;;4.60;2.90;;;;;;;20.86;50.21;98408.08;1733285;82;25802;-60
2022/06/22 06:50:14;;;;;;;4.33;2.80;;;;;;;20.96;50.70;98404.59;1733021;82;25590;-59
2022/06/22 06:53:23;;;;;;;3.80;2.80;;;;;;;21.12;50.65;98407.05;1731099;82;25707;-59
2022/06/22 06:56:04;;;;;;;5.72;3.22;;;;;;;21.16;48.35;98408.46;1733392;82;25499;-60
2022/06/22 06:58:44;;;;;;;5.12;3.05;;;;;;;21.28;49.13;98398.95;1728593;82;27356;-60
2022/06/22 07:01:19;;;;;;;4.55;3.30;;;;;;;21.46;48.90;98402.38;1733386;82;25891;-59
2022/06/22 07:03:47;;;;;;;4.28;2.47;;;;;;;21.66;48.55;98398.05;1733484;82;25733;-60
2022/06/22 07:06:14;;;;;;;3.02;2.30;;;;;;;21.73;49.36;98394.46;1733172;82;25919;-59
2022/06/22 07:08:48;;;;;;;4.97;2.90;;;;;;;21.97;49.03;98395.52;1733262;82;25510;-60
2022/06/22 07:11:32;;;;;;;5.12;3.50;;;;;;;22.10;48.47;98395.93;1752265;80;27369;-60
2022/06/22 07:14:23;;;;;;;6.00;3.62;;;;;;;22.38;50.10;98407.67;1790339;80;25595;-60
2022/06/22 07:16:55;;;;;;;5.75;3.60;;;;;;;22.51;49.03;98403.06;1792726;80;25627;-60
2022/06/22 07:19:35;;;;;;;4.47;3.00;;;;;;;22.83;49.77;98400.83;1792949;79;25725;-60
2022/06/22 07:22:26;;;;;;;5.90;2.90;;;;;;;23.18;49.91;98401.91;1792167;80;25659;-59
2022/06/22 07:24:57;;;;;;;7.17;2.72;;;;;;;23.50;47.70;98398.77;1791762;80;28663;-59
2022/06/22 07:27:52;;;;;;;4.62;2.75;;;;;;;23.51;46.38;98396.16;1790614;80;25652;-60
2022/06/22 07:30:29;;;;;;;3.52;2.50;;;;;;;23.59;47.30;98400.30;1793088;80;25557;-60
2022/06/22 07:33:16;;;;;;;4.65;2.20;;;;;;;23.91;46.54;98396.48;1792683;80;25714;-59
2022/06/22 07:35:50;;;;;;;3.40;2.25;;;;;;;24.09;45.35;98397.74;1793278;80;25605;-60
2022/06/22 07:38:50;;;;;;;4.05;2.40;;;;;;;24.44;45.18;98400.69;1793321;80;27311;-59
2022/06/22 07:41:20;;;;;;;4.62;2.30;;;;;;;24.58;43.20;98400.34;1792681;80;25617;-60
2022/06/22 07:43:55;;;;;;;3.95;2.40;;;;;;;24.76;42.71;98398.16;1793251;80;25602;-60
2022/06/22 07:46:41;;;;;;;3.77;2.30;;;;;;;24.92;43.06;98397.59;1793005;79;25844;-60
2022/06/22 07:49:19;;;;;;;5.67;2.00;;;;;;;25.15;42.19;98400.32;1765374;81;25458;-60
2022/06/22 07:51:53;;;;;;;2.77;1.95;;;;;;;25.38;42.33;98403.62;1792135;80;27371;-59
2022/06/22 07:54:40;;;;;;;2.60;1.72;;;;;;;25.62;42.27;98401.72;1765744;81;26484;-60
2022/06/22 07:57:31;;;;;;;2.87;1.77;;;;;;;25.87;39.21;98396.94;1793100;80;25677;-60
2022/06/22 08:00:15;;;;;;;2.52;1.70;;;;;;;26.03;38.68;98394.30;1760533;81;25729;-60
2022/06/22 08:02:56;;;;;;;3.37;1.90;;;;;;;26.08;39.17;98392.22;1792462;80;25585;-60
2022/06/22 08:05:28;;;;;;;3.33;1.70;;;;;;;26.22;39.44;98398.20;1762669;81;27470;-60
2022/06/22 08:08:20;;;;;;;2.60;1.22;;;;;;;26.56;39.72;98396.62;1793323;80;25702;-60
2022/06/22 08:10:57;;;;;;;3.75;1.40;;;;;;;26.74;37.55;98396.11;1765392;81;25451;-60
2022/06/22 08:13:28;;;;;;;2.58;1.60;;;;;;;26.90;38.12;98397.59;1792570;80;26053;-60
2022/06/22 08:15:59;;;;;;;3.98;1.50;;;;;;;27.06;36.87;98402.50;1764976;81;25633;-60
2022/06/22 08:18:28;;;;;;;3.10;1.50;;;;;;;27.32;37.50;98404.80;1793181;80;27539;-61
2022/06/22 08:20:57;;;;;;;3.02;1.57;;;;;;;27.52;37.66;98407.56;1765312;81;25469;-60
2022/06/22 08:23:28;;;;;;;2.10;1.50;;;;;;;27.68;35.59;98399.00;1793178;80;25422;-60
2022/06/22 08:25:57;;;;;;;2.02;1.30;;;;;;;27.80;34.64;98403.15;1764538;81;26410;-60
2022/06/22 08:28:26;;;;;;;2.30;1.22;;;;;;;27.84;35.87;98403.88;1793218;80;25597;-60
2022/06/22 08:30:55;;;;;;;4.03;1.70;;;;;;;27.92;35.14;98403.86;1765563;81;28072;-60
2022/06/22 08:33:41;;;;;;;8.18;1.65;;;;;;;28.08;34.62;98398.67;1793105;80;25898;-60
2022/06/22 08:36:26;;;;;;;2.85;1.37;;;;;;;28.14;35.65;98392.08;1765397;81;25756;-60
2022/06/22 08:39:06;;;;;;;2.72;1.40;;;;;;;28.27;35.64;98394.95;1791897;79;25999;-60
2022/06/22 08:41:59;;;;;;;2.22;1.32;;;;;;;28.34;34.59;98395.43;1765154;81;25463;-60
2022/06/22 08:44:43;;;;;;;3.20;1.82;;;;;;;28.47;34.62;98396.92;1792977;80;27592;-60
2022/06/22 08:47:51;;;;;;;2.75;1.40;;;;;;;28.70;34.17;98383.02;1727927;82;27182;-60
2022/06/22 08:50:52;;;;;;;2.90;1.40;;;;;;;28.58;35.23;98384.56;1761835;81;25393;-60
2022/06/22 08:53:56;;;;;;;2.22;1.37;;;;;;;28.71;34.19;98390.23;1761745;81;25901;-60
2022/06/22 08:56:54;;;;;;;5.25;1.60;;;;;;;28.15;32.93;98395.06;1760199;81;25767;-60
2022/06/22 08:59:25;;;;;;;3.72;1.37;;;;;;;28.23;32.78;98388.62;1761605;81;27471;-60
2022/06/22 09:02:00;;;;;;;3.05;1.40;;;;;;;27.77;32.62;98389.34;1756648;81;25774;-60
2022/06/22 09:05:04;;;;;;;3.75;1.55;;;;;;;28.13;34.20;98386.88;1760957;81;25730;-60
2022/06/22 09:08:24;;;;;;;3.45;1.40;;;;;;;28.51;32.72;98379.29;1761853;81;25758;-60
2022/06/22 09:11:22;;;;;;;3.10;1.40;;;;;;;28.71;34.21;98374.12;1761031;81;25753;-60
2022/06/22 09:14:09;;;;;;;1.50;1.25;;;;;;;28.94;34.19;98373.71;1761458;81;28260;-60
2022/06/22 09:17:06;;;;;;;3.05;1.80;;;;;;;29.09;33.81;98371.88;1700788;84;25732;-59
2022/06/22 09:19:44;;;;;;;2.60;1.50;;;;;;;29.46;31.15;98380.84;1704297;84;25731;-60
2022/06/22 09:22:23;;;;;;;2.95;1.40;;;;;;;29.74;32.13;98376.19;1704662;84;43892;-60
2022/06/22 09:25:07;;;;;;;2.27;1.15;;;;;;;30.06;32.07;98368.69;1703619;84;25729;-59
2022/06/22 09:27:53;;;;;;;3.77;1.10;;;;;;;30.04;31.62;98370.56;1704588;84;27788;-59
2022/06/22 09:30:37;;;;;;;2.05;1.00;;;;;;;30.42;30.54;98366.69;1702470;84;25678;-60
2022/06/22 09:33:09;;;;;;;3.05;1.02;;;;;;;30.76;29.02;98365.70;1704161;84;25526;-60
2022/06/22 09:35:55;;;;;;;3.15;1.02;;;;;;;30.85;29.05;98367.20;1703592;84;25769;-59
2022/06/22 09:38:39;;;;;;;2.17;1.10;;;;;;;30.48;27.44;98371.92;1670806;85;25551;-57
2022/06/22 09:41:20;;;;;;;3.08;1.22;;;;;;;30.41;27.87;98371.56;1668387;85;27495;-59
2022/06/22 09:44:40;;;;;;;1.10;0.80;;;;;;;30.22;27.41;98373.42;1597399;89;26101;-60
2022/06/22 09:47:38;;;;;;;1.32;1.00;;;;;;;30.11;28.45;98362.48;1576463;90;25946;-59
2022/06/22 09:50:36;;;;;;;2.92;0.80;;;;;;;29.55;27.72;98371.09;1613988;88;25744;-59
2022/06/22 09:53:26;;;;;;;0.93;0.80;;;;;;;29.80;28.15;98361.06;1605412;88;25547;-59
2022/06/22 09:56:23;;;;;;;2.92;0.70;;;;;;;30.01;27.00;98360.78;1573188;91;27429;-60
2022/06/22 09:59:36;;;;;;;2.08;0.70;;;;;;;29.91;26.55;98367.74;1586238;90;25771;-59
2022/06/22 10:02:23;;;;;;;1.15;0.75;;;;;;;29.35;26.64;98360.62;1559057;92;25680;-59
2022/06/22 10:05:42;;;;;;;1.42;0.60;;;;;;;29.13;28.03;98359.88;1561011;91;25770;-59
2022/06/22 10:08:46;;;;;;;;;;;;;;;28.46;27.89;98355.86;1588996;90;25695;-59
2022/06/22 10:11:45;;;;;;;2.42;0.80;;;;;;;28.83;28.71;98359.89;1589283;90;27432;-59
2022/06/22 10:14:43;;;;;;;1.37;1.00;;;;;;;29.18;28.06;98365.75;1614757;85;25733;-59
2022/06/22 10:17:51;;;;;;;2.92;1.00;;;;;;;29.21;28.80;98359.05;1690682;84;25567;-58
2022/06/22 10:20:40;;;;;;;1.10;0.70;;;;;;;29.70;28.23;98360.77;1585999;88;25661;-59
2022/06/22 10:23:38;;;;;;;2.08;0.68;;;;;;;29.51;26.67;98365.38;1621508;88;25465;-59
2022/06/22 10:26:30;;;;;;;1.92;0.98;;;;;;;29.54;26.10;98356.02;1621273;88;27503;-58
2022/06/22 10:29:31;;;;;;;2.08;1.00;;;;;;;29.34;27.43;98353.41;1621250;88;25732;-59
2022/06/22 10:32:24;;;;;;;2.40;0.90;;;;;;;29.80;26.87;98356.03;1620338;86;25547;-59
2022/06/22 10:35:02;;;;;;;1.15;0.47;;;;;;;30.12;25.96;98363.25;1635848;87;26597;-59
2022/06/22 10:37:49;;;;;;;1.27;0.60;;;;;;;30.58;26.82;98368.56;1635426;87;25573;-60
2022/06/22 10:47:04;;;;;;;1.35;0.80;;;;;;;30.40;25.72;98362.90;1632584;87;25683;-60
2022/06/22 10:49:51;;;;;;;2.55;0.72;;;;;;;29.44;26.80;98364.97;1576853;91;26540;-60
2022/06/22 10:53:01;;;;;;;1.42;0.70;;;;;;;29.03;26.31;98358.95;1568481;91;25877;-59
2022/06/22 10:55:33;;;;;;;;;;;;;;;28.77;27.96;98357.44;1569425;91;27399;-59
2022/06/22 10:58:23;;;;;;;1.67;0.90;;;;;;;28.24;27.05;98366.89;1567075;91;25739;-60
2022/06/22 11:01:04;;;;;;;1.85;0.88;;;;;;;27.73;28.23;98365.32;1567368;91;25775;-59
2022/06/22 11:04:13;;;;;;;2.98;0.88;;;;;;;27.99;28.57;98353.63;1567490;91;25824;-60
2022/06/22 11:07:30;;;;;;;1.95;0.80;;;;;;;28.96;28.87;98352.11;1567226;90;25687;-59
2022/06/22 11:10:11;;;;;;;2.05;0.70;;;;;;;29.57;27.95;98343.05;1566518;91;27578;-59
2022/06/22 11:12:59;;;;;;;2.40;0.60;;;;;;;30.30;26.40;98350.74;1630630;87;25892;-59
2022/06/22 11:16:01;;;;;;;1.62;0.60;;;;;;;30.49;25.46;98345.25;1643887;87;25467;-59
2022/06/22 11:18:38;;;;;;;0.95;0.75;;;;;;;30.09;26.38;98345.80;1580734;90;25812;-59
2022/06/22 11:21:31;;;;;;;1.92;0.95;;;;;;;30.24;25.69;98346.91;1579673;90;25736;-60
2022/06/22 11:24:28;;;;;;;2.42;0.80;;;;;;;30.43;25.84;98345.03;1592245;90;27311;-60
2022/06/22 11:30:51;;;;;;;1.70;0.75;;;;;;;31.47;24.97;98352.17;1629230;88;25545;-59
2022/06/22 11:33:48;;;;;;;1.32;0.70;;;;;;;32.04;27.36;98358.17;1637910;87;25848;-59
2022/06/22 11:36:39;;;;;;;2.98;0.80;;;;;;;32.80;25.81;98357.59;1629407;88;25727;-59
2022/06/22 11:39:38;;;;;;;1.52;0.60;;;;;;;33.24;23.82;98357.83;1637378;87;27381;-58
2022/06/22 11:42:40;;;;;;;1.87;0.60;;;;;;;32.42;23.42;98349.72;1628758;88;34766;-59
2022/06/22 11:48:36;;;;;;;1.62;0.78;;;;;;;31.27;24.84;98358.98;1630019;87;25850;-59
2022/06/22 11:51:32;;;;;;;1.55;0.72;;;;;;;31.44;25.78;98357.34;1642314;87;25809;-59
2022/06/22 11:54:31;;;;;;;2.22;0.80;;;;;;;31.03;24.53;98355.86;1680542;85;28511;-60
2022/06/22 11:57:22;;;;;;;4.53;0.60;;;;;;;31.18;25.35;98364.59;1773714;80;26375;-60
2022/06/22 12:00:13;;;;;;;1.72;0.80;;;;;;;31.25;26.47;98353.59;1773668;80;25575;-59
2022/06/22 12:02:57;;;;;;;2.37;0.78;;;;;;;31.60;26.43;98356.30;1768764;80;25854;-58
2022/06/22 12:05:51;;;;;;;0.80;0.60;;;;;;;31.88;26.08;98347.89;1773856;80;25601;-60
2022/06/22 12:08:57;;;;;;;2.15;0.93;;;;;;;31.85;25.87;98348.03;1773674;80;27658;-60
2022/06/22 12:11:47;;;;;;;2.12;0.80;;;;;;;31.24;25.54;98337.27;1773757;80;26075;-59
2022/06/22 12:17:47;;;;;;;1.47;0.80;;;;;;;31.51;25.85;98347.15;1773706;80;25731;-59
2022/06/22 12:20:44;;;;;;;3.47;0.80;;;;;;;32.20;25.08;98338.53;1773839;80;25644;-59
2022/06/22 12:23:56;;;;;;;2.42;0.80;;;;;;;32.76;24.11;98345.01;1774082;80;27993;-59
2022/06/22 12:26:49;;;;;;;1.45;0.88;;;;;;;33.36;23.57;98336.17;1773782;80;25449;-59
2022/06/22 12:29:49;;;;;;;1.50;0.70;;;;;;;32.48;22.16;98332.84;1773529;80;25586;-59
2022/06/22 12:32:21;;;;;;;1.85;0.88;;;;;;;32.57;23.21;98342.80;1773606;80;27779;-59
2022/06/22 12:35:16;;;;;;;2.42;0.85;;;;;;;32.40;23.41;98333.17;1773446;80;25654;-59
2022/06/22 12:37:54;;;;;;;1.05;0.60;;;;;;;32.28;24.35;98329.86;1772587;80;28582;-59
2022/06/22 12:40:44;;;;;;;2.15;0.90;;;;;;;32.83;23.54;98332.53;1773886;80;25738;-59
2022/06/22 12:43:42;;;;;;;2.62;0.93;;;;;;;33.37;24.58;98323.56;1774057;80;25409;-58
2022/06/22 12:46:41;;;;;;;1.55;0.80;;;;;;;33.68;23.01;98327.39;1773474;80;26491;-59
2022/06/22 12:49:48;;;;;;;1.50;0.75;;;;;;;33.34;23.34;98323.73;1727971;82;25652;-60
2022/06/22 12:53:06;;;;;;;2.37;0.80;;;;;;;32.03;22.76;98324.02;1767864;80;27590;-59
2022/06/22 12:55:39;;;;;;;3.98;0.80;;;;;;;30.86;24.89;98320.72;1765216;81;25523;-59
2022/06/22 12:58:22;;;;;;;3.20;0.80;;;;;;;31.12;25.22;98314.89;1765244;81;25736;-59
2022/06/22 13:00:50;;;;;;;1.15;0.90;;;;;;;31.94;25.28;98323.23;1765190;81;25788;-59
2022/06/22 13:03:24;;;;;;;1.07;0.80;;;;;;;32.62;25.38;98326.58;1765118;81;25592;-59
2022/06/22 13:05:52;;;;;;;3.62;0.80;;;;;;;33.12;25.30;98329.80;1765145;81;27809;-58
2022/06/22 13:08:27;;;;;;;2.67;1.00;;;;;;;33.38;24.67;98320.08;1765201;81;25797;-59
2022/06/22 13:11:01;;;;;;;3.02;1.00;;;;;;;33.74;23.62;98314.73;1765119;81;25720;-60